sensor_id;sensor_type;location;lat;lon;timestamp;temperature;humidity
3055;DHT22;1537;52.018;8.542;2023-08-21T00:02:42;20.20;99.90
3055;DHT22;1537;52.018;8.542;2023-08-21T00:06:08;20.20;99.90
3055;DHT22;1537;52.018;8.542;2023-08-21T00:09:34;20.20;99.90
3055;DHT22;1537;52.018;8.542;2023-08-21T00:12:58;20.20;99.90
3055;DHT22;1537;52.018;8.542;2023-08-21T00:16:22;20.10;99.90
3055;DHT22;1537;52.018;8.542;2023-08-21T00:19:47;20.00;99.90
3055;DHT22;1537;52.018;8.542;2023-08-21T00:23:11;20.00;99.90
3055;DHT22;1537;52.018;8.542;2023-08-21T00:26:37;20.00;99.90
3055;DHT22;1537;52.018;8.542;2023-08-21T00:30:01;19.90;99.90
3055;DHT22;1537;52.018;8.542;2023-08-21T00:33:28;19.90;99.90
3055;DHT22;1537;52.018;8.542;2023-08-21T00:36:53;19.80;99.90
3055;DHT22;1537;52.018;8.542;2023-08-21T00:40:18;19.80;99.90
3055;DHT22;1537;52.018;8.542;2023-08-21T00:43:42;19.80;99.90
3055;DHT22;1537;52.018;8.542;2023-08-21T00:47:06;19.70;99.90
3055;DHT22;1537;52.018;8.542;2023-08-21T00:50:30;19.60;99.90
3055;DHT22;1537;52.018;8.542;2023-08-21T00:53:56;19.50;99.90
3055;DHT22;1537;52.018;8.542;2023-08-21T00:57:21;19.50;99.90
3055;DHT22;1537;52.018;8.542;2023-08-21T01:00:48;19.40;99.90
3055;DHT22;1537;52.018;8.542;2023-08-21T01:04:15;19.40;99.90
3055;DHT22;1537;52.018;8.542;2023-08-21T01:07:46;19.20;99.90
3055;DHT22;1537;52.018;8.542;2023-08-21T01:11:20;19.30;99.90
3055;DHT22;1537;52.018;8.542;2023-08-21T01:14:53;19.20;99.90
3055;DHT22;1537;52.018;8.542;2023-08-21T01:18:19;19.20;99.90
3055;DHT22;1537;52.018;8.542;2023-08-21T01:21:52;19.20;99.90
3055;DHT22;1537;52.018;8.542;2023-08-21T01:25:17;19.20;99.90
3055;DHT22;1537;52.018;8.542;2023-08-21T01:28:41;19.30;99.90
3055;DHT22;1537;52.018;8.542;2023-08-21T01:32:09;19.30;99.90
3055;DHT22;1537;52.018;8.542;2023-08-21T01:35:37;19.30;99.90
3055;DHT22;1537;52.018;8.542;2023-08-21T01:39:01;19.30;99.90
3055;DHT22;1537;52.018;8.542;2023-08-21T01:42:27;19.30;99.90
3055;DHT22;1537;52.018;8.542;2023-08-21T01:45:52;19.40;99.90
3055;DHT22;1537;52.018;8.542;2023-08-21T01:49:16;19.40;99.90
3055;DHT22;1537;52.018;8.542;2023-08-21T01:52:41;19.50;99.90
3055;DHT22;1537;52.018;8.542;2023-08-21T01:56:07;19.50;99.90
3055;DHT22;1537;52.018;8.542;2023-08-21T01:59:32;19.50;99.90
3055;DHT22;1537;52.018;8.542;2023-08-21T02:02:56;19.60;99.90
3055;DHT22;1537;52.018;8.542;2023-08-21T02:06:20;19.60;99.90
3055;DHT22;1537;52.018;8.542;2023-08-21T02:09:44;19.60;99.90
3055;DHT22;1537;52.018;8.542;2023-08-21T02:13:08;19.70;99.90
3055;DHT22;1537;52.018;8.542;2023-08-21T02:16:33;19.80;99.90
3055;DHT22;1537;52.018;8.542;2023-08-21T02:19:59;19.80;99.90
3055;DHT22;1537;52.018;8.542;2023-08-21T02:23:23;19.90;99.90
3055;DHT22;1537;52.018;8.542;2023-08-21T02:26:48;19.90;99.90
3055;DHT22;1537;52.018;8.542;2023-08-21T02:30:12;19.90;99.90
3055;DHT22;1537;52.018;8.542;2023-08-21T02:33:40;19.90;99.90
3055;DHT22;1537;52.018;8.542;2023-08-21T02:37:04;19.90;99.90
3055;DHT22;1537;52.018;8.542;2023-08-21T02:40:28;19.90;99.90
3055;DHT22;1537;52.018;8.542;2023-08-21T02:43:52;19.90;99.90
3055;DHT22;1537;52.018;8.542;2023-08-21T02:47:16;19.90;99.90
3055;DHT22;1537;52.018;8.542;2023-08-21T02:50:41;19.90;99.90
3055;DHT22;1537;52.018;8.542;2023-08-21T02:54:05;20.00;99.90
3055;DHT22;1537;52.018;8.542;2023-08-21T02:57:29;19.90;99.90
3055;DHT22;1537;52.018;8.542;2023-08-21T03:00:58;19.90;99.90
3055;DHT22;1537;52.018;8.542;2023-08-21T03:04:22;19.90;99.90
3055;DHT22;1537;52.018;8.542;2023-08-21T03:07:48;19.90;99.90
3055;DHT22;1537;52.018;8.542;2023-08-21T03:11:12;19.90;99.90
3055;DHT22;1537;52.018;8.542;2023-08-21T03:14:38;19.80;99.90
3055;DHT22;1537;52.018;8.542;2023-08-21T03:18:03;19.80;99.90
3055;DHT22;1537;52.018;8.542;2023-08-21T03:21:27;19.80;99.90
3055;DHT22;1537;52.018;8.542;2023-08-21T03:24:56;19.70;99.90
3055;DHT22;1537;52.018;8.542;2023-08-21T03:28:21;19.60;99.90
3055;DHT22;1537;52.018;8.542;2023-08-21T03:31:49;19.60;99.90
3055;DHT22;1537;52.018;8.542;2023-08-21T03:35:13;19.60;99.90
3055;DHT22;1537;52.018;8.542;2023-08-21T03:38:37;19.60;99.90
3055;DHT22;1537;52.018;8.542;2023-08-21T03:42:04;19.60;99.90
3055;DHT22;1537;52.018;8.542;2023-08-21T03:45:28;19.60;99.90
3055;DHT22;1537;52.018;8.542;2023-08-21T03:48:52;19.50;99.90
3055;DHT22;1537;52.018;8.542;2023-08-21T03:52:16;19.50;99.90
3055;DHT22;1537;52.018;8.542;2023-08-21T03:55:40;19.30;99.90
3055;DHT22;1537;52.018;8.542;2023-08-21T03:59:06;19.10;99.90
3055;DHT22;1537;52.018;8.542;2023-08-21T04:02:29;19.10;99.90
3055;DHT22;1537;52.018;8.542;2023-08-21T04:05:53;19.10;99.90
3055;DHT22;1537;52.018;8.542;2023-08-21T04:09:23;19.10;99.90
3055;DHT22;1537;52.018;8.542;2023-08-21T04:12:47;19.10;99.90
3055;DHT22;1537;52.018;8.542;2023-08-21T04:16:13;19.10;99.90
3055;DHT22;1537;52.018;8.542;2023-08-21T04:19:38;19.20;99.90
3055;DHT22;1537;52.018;8.542;2023-08-21T04:23:05;19.30;99.90
3055;DHT22;1537;52.018;8.542;2023-08-21T04:26:29;19.30;99.90
3055;DHT22;1537;52.018;8.542;2023-08-21T04:29:53;19.30;99.90
3055;DHT22;1537;52.018;8.542;2023-08-21T04:33:19;19.40;99.90
3055;DHT22;1537;52.018;8.542;2023-08-21T04:36:43;19.30;99.90
3055;DHT22;1537;52.018;8.542;2023-08-21T04:40:09;19.40;99.90
3055;DHT22;1537;52.018;8.542;2023-08-21T04:43:34;19.50;99.90
3055;DHT22;1537;52.018;8.542;2023-08-21T04:47:20;19.50;99.90
3055;DHT22;1537;52.018;8.542;2023-08-21T04:50:49;19.60;99.90
3055;DHT22;1537;52.018;8.542;2023-08-21T04:54:13;19.70;99.90
3055;DHT22;1537;52.018;8.542;2023-08-21T04:57:38;19.60;99.90
3055;DHT22;1537;52.018;8.542;2023-08-21T05:01:05;19.70;99.90
3055;DHT22;1537;52.018;8.542;2023-08-21T05:04:32;19.70;99.90
3055;DHT22;1537;52.018;8.542;2023-08-21T05:07:59;19.60;99.90
3055;DHT22;1537;52.018;8.542;2023-08-21T05:11:23;19.70;99.90
3055;DHT22;1537;52.018;8.542;2023-08-21T05:14:48;19.70;99.90
3055;DHT22;1537;52.018;8.542;2023-08-21T05:18:12;19.80;99.90
3055;DHT22;1537;52.018;8.542;2023-08-21T05:21:36;19.90;99.90
3055;DHT22;1537;52.018;8.542;2023-08-21T05:25:03;20.00;99.90
3055;DHT22;1537;52.018;8.542;2023-08-21T05:28:27;20.00;99.90
3055;DHT22;1537;52.018;8.542;2023-08-21T05:31:51;20.10;99.90
3055;DHT22;1537;52.018;8.542;2023-08-21T05:35:16;20.30;99.90
3055;DHT22;1537;52.018;8.542;2023-08-21T05:38:48;20.40;99.90
3055;DHT22;1537;52.018;8.542;2023-08-21T05:42:16;20.70;99.90
3055;DHT22;1537;52.018;8.542;2023-08-21T05:45:46;21.20;99.90
3055;DHT22;1537;52.018;8.542;2023-08-21T05:49:12;21.80;99.90
3055;DHT22;1537;52.018;8.542;2023-08-21T05:52:38;21.80;99.90
3055;DHT22;1537;52.018;8.542;2023-08-21T05:56:07;22.20;99.90
3055;DHT22;1537;52.018;8.542;2023-08-21T05:59:33;22.20;99.90
3055;DHT22;1537;52.018;8.542;2023-08-21T06:02:59;22.00;99.90
3055;DHT22;1537;52.018;8.542;2023-08-21T06:06:49;22.50;99.90
3055;DHT22;1537;52.018;8.542;2023-08-21T06:10:13;23.50;99.90
3055;DHT22;1537;52.018;8.542;2023-08-21T06:13:47;24.40;99.90
3055;DHT22;1537;52.018;8.542;2023-08-21T06:17:12;25.40;99.90
3055;DHT22;1537;52.018;8.542;2023-08-21T06:20:35;26.10;99.90
3055;DHT22;1537;52.018;8.542;2023-08-21T06:23:59;26.30;99.90
3055;DHT22;1537;52.018;8.542;2023-08-21T06:27:23;26.20;99.90
3055;DHT22;1537;52.018;8.542;2023-08-21T06:30:47;25.90;99.90
3055;DHT22;1537;52.018;8.542;2023-08-21T06:34:12;25.80;99.90
3055;DHT22;1537;52.018;8.542;2023-08-21T06:37:36;26.10;99.90
3055;DHT22;1537;52.018;8.542;2023-08-21T06:41:00;26.70;99.90
3055;DHT22;1537;52.018;8.542;2023-08-21T06:44:30;27.00;99.90
3055;DHT22;1537;52.018;8.542;2023-08-21T06:47:54;27.50;99.10
3055;DHT22;1537;52.018;8.542;2023-08-21T06:51:19;27.30;98.90
3055;DHT22;1537;52.018;8.542;2023-08-21T06:54:43;26.10;99.90
3055;DHT22;1537;52.018;8.542;2023-08-21T06:58:06;25.80;99.90
3055;DHT22;1537;52.018;8.542;2023-08-21T07:01:30;25.90;99.90
3055;DHT22;1537;52.018;8.542;2023-08-21T07:04:54;26.90;99.10
3055;DHT22;1537;52.018;8.542;2023-08-21T07:08:19;26.60;99.30
3055;DHT22;1537;52.018;8.542;2023-08-21T07:11:42;26.70;99.60
3055;DHT22;1537;52.018;8.542;2023-08-21T07:15:07;27.70;98.90
3055;DHT22;1537;52.018;8.542;2023-08-21T07:18:32;28.20;97.90
3055;DHT22;1537;52.018;8.542;2023-08-21T07:21:56;29.40;96.80
3055;DHT22;1537;52.018;8.542;2023-08-21T07:25:21;30.50;95.30
3055;DHT22;1537;52.018;8.542;2023-08-21T07:28:47;31.20;93.40
3055;DHT22;1537;52.018;8.542;2023-08-21T07:32:10;30.10;93.90
3055;DHT22;1537;52.018;8.542;2023-08-21T07:35:34;28.70;95.30
3055;DHT22;1537;52.018;8.542;2023-08-21T07:38:58;28.10;96.00
3055;DHT22;1537;52.018;8.542;2023-08-21T07:42:23;27.90;96.70
3055;DHT22;1537;52.018;8.542;2023-08-21T07:45:49;29.10;94.60
3055;DHT22;1537;52.018;8.542;2023-08-21T07:49:12;30.10;93.40
3055;DHT22;1537;52.018;8.542;2023-08-21T07:52:36;30.80;92.90
3055;DHT22;1537;52.018;8.542;2023-08-21T07:56:01;31.00;91.90
3055;DHT22;1537;52.018;8.542;2023-08-21T07:59:27;29.90;91.80
3055;DHT22;1537;52.018;8.542;2023-08-21T08:02:51;29.60;91.80
3055;DHT22;1537;52.018;8.542;2023-08-21T08:06:15;29.90;92.00
3055;DHT22;1537;52.018;8.542;2023-08-21T08:09:38;30.80;91.50
3055;DHT22;1537;52.018;8.542;2023-08-21T08:13:02;31.50;91.30
3055;DHT22;1537;52.018;8.542;2023-08-21T08:16:27;31.50;90.70
3055;DHT22;1537;52.018;8.542;2023-08-21T08:19:51;31.20;90.90
3055;DHT22;1537;52.018;8.542;2023-08-21T08:23:15;31.30;90.00
3055;DHT22;1537;52.018;8.542;2023-08-21T08:26:41;31.50;90.00
3055;DHT22;1537;52.018;8.542;2023-08-21T08:30:06;30.90;88.70
3055;DHT22;1537;52.018;8.542;2023-08-21T08:33:32;30.10;89.90
3055;DHT22;1537;52.018;8.542;2023-08-21T08:36:55;30.10;90.30
3055;DHT22;1537;52.018;8.542;2023-08-21T08:40:19;30.10;90.60
3055;DHT22;1537;52.018;8.542;2023-08-21T08:43:44;30.00;91.20
3055;DHT22;1537;52.018;8.542;2023-08-21T08:47:10;30.20;90.70
3055;DHT22;1537;52.018;8.542;2023-08-21T08:50:37;30.40;90.30
3055;DHT22;1537;52.018;8.542;2023-08-21T08:54:01;31.00;89.40
3055;DHT22;1537;52.018;8.542;2023-08-21T08:57:26;31.00;89.80
3055;DHT22;1537;52.018;8.542;2023-08-21T09:00:50;29.50;90.70
3055;DHT22;1537;52.018;8.542;2023-08-21T09:04:13;28.80;91.80
3055;DHT22;1537;52.018;8.542;2023-08-21T09:07:39;28.30;92.40
3055;DHT22;1537;52.018;8.542;2023-08-21T09:11:03;28.50;92.90
3055;DHT22;1537;52.018;8.542;2023-08-21T09:14:28;29.60;92.20
3055;DHT22;1537;52.018;8.542;2023-08-21T09:17:53;30.50;90.80
3055;DHT22;1537;52.018;8.542;2023-08-21T09:21:17;31.80;90.20
3055;DHT22;1537;52.018;8.542;2023-08-21T09:25:01;32.30;89.20
3055;DHT22;1537;52.018;8.542;2023-08-21T09:28:29;32.10;86.90
3055;DHT22;1537;52.018;8.542;2023-08-21T09:31:56;32.40;87.60
3055;DHT22;1537;52.018;8.542;2023-08-21T09:35:19;33.10;85.10
3055;DHT22;1537;52.018;8.542;2023-08-21T09:38:45;34.10;83.70
3055;DHT22;1537;52.018;8.542;2023-08-21T09:42:11;33.30;85.40
3055;DHT22;1537;52.018;8.542;2023-08-21T09:45:35;32.50;86.20
3055;DHT22;1537;52.018;8.542;2023-08-21T09:48:58;32.10;86.50
3055;DHT22;1537;52.018;8.542;2023-08-21T09:52:26;31.10;87.90
3055;DHT22;1537;52.018;8.542;2023-08-21T09:56:08;30.60;90.10
3055;DHT22;1537;52.018;8.542;2023-08-21T09:59:33;32.10;87.00
3055;DHT22;1537;52.018;8.542;2023-08-21T10:03:01;33.10;84.30
3055;DHT22;1537;52.018;8.542;2023-08-21T10:06:25;33.90;81.70
3055;DHT22;1537;52.018;8.542;2023-08-21T10:09:49;33.20;83.90
3055;DHT22;1537;52.018;8.542;2023-08-21T10:13:13;33.00;84.30
3055;DHT22;1537;52.018;8.542;2023-08-21T10:16:38;33.00;82.40
3055;DHT22;1537;52.018;8.542;2023-08-21T10:20:04;31.70;85.80
3055;DHT22;1537;52.018;8.542;2023-08-21T10:23:29;30.40;87.50
3055;DHT22;1537;52.018;8.542;2023-08-21T10:26:53;30.60;86.70
3055;DHT22;1537;52.018;8.542;2023-08-21T10:30:20;30.90;86.20
3055;DHT22;1537;52.018;8.542;2023-08-21T10:33:48;30.30;88.00
3055;DHT22;1537;52.018;8.542;2023-08-21T10:37:12;30.80;87.50
3055;DHT22;1537;52.018;8.542;2023-08-21T10:40:37;32.00;87.10
3055;DHT22;1537;52.018;8.542;2023-08-21T10:44:00;32.10;84.10
3055;DHT22;1537;52.018;8.542;2023-08-21T10:47:32;30.80;86.60
3055;DHT22;1537;52.018;8.542;2023-08-21T10:51:01;31.00;86.50
3055;DHT22;1537;52.018;8.542;2023-08-21T10:54:26;32.00;85.20
3055;DHT22;1537;52.018;8.542;2023-08-21T10:57:50;32.50;84.30
3055;DHT22;1537;52.018;8.542;2023-08-21T11:01:13;32.40;83.30
3055;DHT22;1537;52.018;8.542;2023-08-21T11:04:41;30.90;84.70
3055;DHT22;1537;52.018;8.542;2023-08-21T11:08:08;29.40;89.60
3055;DHT22;1537;52.018;8.542;2023-08-21T11:11:31;28.50;90.50
3055;DHT22;1537;52.018;8.542;2023-08-21T11:14:56;28.00;91.00
3055;DHT22;1537;52.018;8.542;2023-08-21T11:18:20;28.00;91.30
3055;DHT22;1537;52.018;8.542;2023-08-21T11:21:51;27.80;91.30
3055;DHT22;1537;52.018;8.542;2023-08-21T11:25:16;28.10;91.40
3055;DHT22;1537;52.018;8.542;2023-08-21T11:28:40;28.10;91.10
3055;DHT22;1537;52.018;8.542;2023-08-21T11:32:07;27.90;91.60
3055;DHT22;1537;52.018;8.542;2023-08-21T11:35:31;27.60;91.40
3055;DHT22;1537;52.018;8.542;2023-08-21T11:38:58;27.50;91.10
3055;DHT22;1537;52.018;8.542;2023-08-21T11:42:30;27.40;91.90
3055;DHT22;1537;52.018;8.542;2023-08-21T11:45:55;27.20;91.70
3055;DHT22;1537;52.018;8.542;2023-08-21T11:49:20;27.10;92.10
3055;DHT22;1537;52.018;8.542;2023-08-21T11:52:44;26.80;92.70
3055;DHT22;1537;52.018;8.542;2023-08-21T11:56:13;26.70;92.70
3055;DHT22;1537;52.018;8.542;2023-08-21T11:59:38;26.70;92.50
3055;DHT22;1537;52.018;8.542;2023-08-21T12:03:03;26.70;92.60
3055;DHT22;1537;52.018;8.542;2023-08-21T12:06:29;26.50;92.90
3055;DHT22;1537;52.018;8.542;2023-08-21T12:09:55;26.80;92.20
3055;DHT22;1537;52.018;8.542;2023-08-21T12:13:18;27.00;92.00
3055;DHT22;1537;52.018;8.542;2023-08-21T12:16:43;26.80;91.70
3055;DHT22;1537;52.018;8.542;2023-08-21T12:20:08;26.50;92.60
3055;DHT22;1537;52.018;8.542;2023-08-21T12:23:33;26.60;92.70
3055;DHT22;1537;52.018;8.542;2023-08-21T12:26:57;26.90;92.50
3055;DHT22;1537;52.018;8.542;2023-08-21T12:30:21;27.60;91.50
3055;DHT22;1537;52.018;8.542;2023-08-21T12:33:46;27.40;91.40
3055;DHT22;1537;52.018;8.542;2023-08-21T12:37:09;27.40;91.20
3055;DHT22;1537;52.018;8.542;2023-08-21T12:40:33;27.20;91.90
3055;DHT22;1537;52.018;8.542;2023-08-21T12:43:57;26.90;91.80
3055;DHT22;1537;52.018;8.542;2023-08-21T12:47:20;26.70;92.60
3055;DHT22;1537;52.018;8.542;2023-08-21T12:50:45;26.90;92.20
3055;DHT22;1537;52.018;8.542;2023-08-21T12:54:09;26.90;92.30
3055;DHT22;1537;52.018;8.542;2023-08-21T12:57:33;27.00;92.30
3055;DHT22;1537;52.018;8.542;2023-08-21T13:00:56;27.20;92.00
3055;DHT22;1537;52.018;8.542;2023-08-21T13:04:20;27.00;92.50
3055;DHT22;1537;52.018;8.542;2023-08-21T13:07:45;27.00;92.40
3055;DHT22;1537;52.018;8.542;2023-08-21T13:11:09;26.90;92.90
3055;DHT22;1537;52.018;8.542;2023-08-21T13:14:33;26.50;93.50
3055;DHT22;1537;52.018;8.542;2023-08-21T13:17:57;26.70;93.50
3055;DHT22;1537;52.018;8.542;2023-08-21T13:21:20;27.20;93.20
3055;DHT22;1537;52.018;8.542;2023-08-21T13:24:45;27.40;93.00
3055;DHT22;1537;52.018;8.542;2023-08-21T13:28:09;27.40;92.80
3055;DHT22;1537;52.018;8.542;2023-08-21T13:31:33;27.40;92.40
3055;DHT22;1537;52.018;8.542;2023-08-21T13:34:57;27.40;92.80
3055;DHT22;1537;52.018;8.542;2023-08-21T13:38:21;27.00;92.50
3055;DHT22;1537;52.018;8.542;2023-08-21T13:41:46;26.80;92.90
3055;DHT22;1537;52.018;8.542;2023-08-21T13:45:14;26.70;93.20
3055;DHT22;1537;52.018;8.542;2023-08-21T13:48:38;26.80;93.20
3055;DHT22;1537;52.018;8.542;2023-08-21T13:52:01;26.70;93.50
3055;DHT22;1537;52.018;8.542;2023-08-21T13:55:26;26.80;93.40
3055;DHT22;1537;52.018;8.542;2023-08-21T13:58:51;27.00;93.10
3055;DHT22;1537;52.018;8.542;2023-08-21T14:02:14;26.70;93.20
3055;DHT22;1537;52.018;8.542;2023-08-21T14:05:38;26.70;93.40
3055;DHT22;1537;52.018;8.542;2023-08-21T14:09:02;26.70;93.30
3055;DHT22;1537;52.018;8.542;2023-08-21T14:12:27;26.80;93.30
3055;DHT22;1537;52.018;8.542;2023-08-21T14:15:52;27.10;92.90
3055;DHT22;1537;52.018;8.542;2023-08-21T14:19:16;27.20;93.10
3055;DHT22;1537;52.018;8.542;2023-08-21T14:22:39;27.00;93.10
3055;DHT22;1537;52.018;8.542;2023-08-21T14:26:03;26.90;92.60
3055;DHT22;1537;52.018;8.542;2023-08-21T14:29:27;26.80;93.00
3055;DHT22;1537;52.018;8.542;2023-08-21T14:32:52;26.70;92.50
3055;DHT22;1537;52.018;8.542;2023-08-21T14:36:15;26.30;92.90
3055;DHT22;1537;52.018;8.542;2023-08-21T14:39:39;26.40;92.90
3055;DHT22;1537;52.018;8.542;2023-08-21T14:43:03;26.40;92.60
3055;DHT22;1537;52.018;8.542;2023-08-21T14:46:26;26.60;92.10
3055;DHT22;1537;52.018;8.542;2023-08-21T14:50:06;26.60;91.80
3055;DHT22;1537;52.018;8.542;2023-08-21T14:53:30;26.60;91.80
3055;DHT22;1537;52.018;8.542;2023-08-21T14:56:53;26.60;91.90
3055;DHT22;1537;52.018;8.542;2023-08-21T15:00:17;26.50;92.10
3055;DHT22;1537;52.018;8.542;2023-08-21T15:03:42;26.40;92.00
3055;DHT22;1537;52.018;8.542;2023-08-21T15:07:07;26.30;92.00
3055;DHT22;1537;52.018;8.542;2023-08-21T15:10:31;26.30;92.30
3055;DHT22;1537;52.018;8.542;2023-08-21T15:13:54;26.30;91.70
3055;DHT22;1537;52.018;8.542;2023-08-21T15:17:18;26.30;91.60
3055;DHT22;1537;52.018;8.542;2023-08-21T15:20:41;26.20;91.70
3055;DHT22;1537;52.018;8.542;2023-08-21T15:24:07;26.10;92.10
3055;DHT22;1537;52.018;8.542;2023-08-21T15:27:30;26.00;92.00
3055;DHT22;1537;52.018;8.542;2023-08-21T15:30:54;26.10;91.90
3055;DHT22;1537;52.018;8.542;2023-08-21T15:34:18;26.10;91.70
3055;DHT22;1537;52.018;8.542;2023-08-21T15:37:41;26.00;91.40
3055;DHT22;1537;52.018;8.542;2023-08-21T15:41:08;26.00;91.50
3055;DHT22;1537;52.018;8.542;2023-08-21T15:44:32;26.30;90.90
3055;DHT22;1537;52.018;8.542;2023-08-21T15:47:55;26.30;90.60
3055;DHT22;1537;52.018;8.542;2023-08-21T15:51:19;26.10;91.30
3055;DHT22;1537;52.018;8.542;2023-08-21T15:54:43;26.10;91.10
3055;DHT22;1537;52.018;8.542;2023-08-21T15:58:13;26.00;90.90
3055;DHT22;1537;52.018;8.542;2023-08-21T16:01:37;25.90;91.60
3055;DHT22;1537;52.018;8.542;2023-08-21T16:05:01;25.90;91.30
3055;DHT22;1537;52.018;8.542;2023-08-21T16:08:26;25.80;90.90
3055;DHT22;1537;52.018;8.542;2023-08-21T16:11:50;25.60;91.40
3055;DHT22;1537;52.018;8.542;2023-08-21T16:15:15;25.50;91.40
3055;DHT22;1537;52.018;8.542;2023-08-21T16:18:39;25.60;92.40
3055;DHT22;1537;52.018;8.542;2023-08-21T16:22:02;25.50;91.70
3055;DHT22;1537;52.018;8.542;2023-08-21T16:25:26;25.50;92.10
3055;DHT22;1537;52.018;8.542;2023-08-21T16:28:50;25.40;91.90
3055;DHT22;1537;52.018;8.542;2023-08-21T16:32:14;25.40;91.90
3055;DHT22;1537;52.018;8.542;2023-08-21T16:35:38;25.50;92.40
3055;DHT22;1537;52.018;8.542;2023-08-21T16:39:05;25.50;92.60
3055;DHT22;1537;52.018;8.542;2023-08-21T16:42:33;25.50;92.40
3055;DHT22;1537;52.018;8.542;2023-08-21T16:45:57;25.40;92.50
3055;DHT22;1537;52.018;8.542;2023-08-21T16:49:22;25.30;92.40
3055;DHT22;1537;52.018;8.542;2023-08-21T16:52:45;25.20;92.70
3055;DHT22;1537;52.018;8.542;2023-08-21T16:56:09;25.20;93.00
3055;DHT22;1537;52.018;8.542;2023-08-21T16:59:33;25.20;93.20
3055;DHT22;1537;52.018;8.542;2023-08-21T17:02:56;25.20;92.70
3055;DHT22;1537;52.018;8.542;2023-08-21T17:06:22;25.20;92.70
3055;DHT22;1537;52.018;8.542;2023-08-21T17:09:47;25.30;92.70
3055;DHT22;1537;52.018;8.542;2023-08-21T17:13:11;25.30;92.60
3055;DHT22;1537;52.018;8.542;2023-08-21T17:16:35;25.30;92.90
3055;DHT22;1537;52.018;8.542;2023-08-21T17:19:59;25.30;93.10
3055;DHT22;1537;52.018;8.542;2023-08-21T17:28:05;25.10;92.90
3055;DHT22;1537;52.018;8.542;2023-08-21T17:31:44;25.20;92.70
3055;DHT22;1537;52.018;8.542;2023-08-21T17:35:08;25.10;92.90
3055;DHT22;1537;52.018;8.542;2023-08-21T17:38:31;25.10;92.90
3055;DHT22;1537;52.018;8.542;2023-08-21T17:41:55;25.10;93.00
3055;DHT22;1537;52.018;8.542;2023-08-21T17:45:20;25.10;93.00
3055;DHT22;1537;52.018;8.542;2023-08-21T17:48:45;25.10;93.10
3055;DHT22;1537;52.018;8.542;2023-08-21T17:52:09;24.90;93.30
3055;DHT22;1537;52.018;8.542;2023-08-21T17:55:34;24.80;92.90
3055;DHT22;1537;52.018;8.542;2023-08-21T17:59:01;24.70;93.10
3055;DHT22;1537;52.018;8.542;2023-08-21T18:02:27;24.70;93.30
3055;DHT22;1537;52.018;8.542;2023-08-21T18:05:54;24.70;93.10
3055;DHT22;1537;52.018;8.542;2023-08-21T18:09:17;24.70;93.60
3055;DHT22;1537;52.018;8.542;2023-08-21T18:12:41;24.60;94.00
3055;DHT22;1537;52.018;8.542;2023-08-21T18:16:05;24.60;93.80
3055;DHT22;1537;52.018;8.542;2023-08-21T18:19:33;24.50;93.80
3055;DHT22;1537;52.018;8.542;2023-08-21T18:23:07;24.50;94.00
3055;DHT22;1537;52.018;8.542;2023-08-21T18:26:31;24.40;94.00
3055;DHT22;1537;52.018;8.542;2023-08-21T18:29:54;24.40;94.30
3055;DHT22;1537;52.018;8.542;2023-08-21T18:33:18;24.30;94.30
3055;DHT22;1537;52.018;8.542;2023-08-21T18:36:44;24.40;94.10
3055;DHT22;1537;52.018;8.542;2023-08-21T18:40:08;24.40;94.00
3055;DHT22;1537;52.018;8.542;2023-08-21T18:43:32;24.30;94.10
3055;DHT22;1537;52.018;8.542;2023-08-21T18:46:58;24.30;94.80
3055;DHT22;1537;52.018;8.542;2023-08-21T18:50:32;24.30;94.90
3055;DHT22;1537;52.018;8.542;2023-08-21T18:53:58;24.20;95.20
3055;DHT22;1537;52.018;8.542;2023-08-21T18:57:21;24.20;95.10
3055;DHT22;1537;52.018;8.542;2023-08-21T19:00:45;24.20;95.10
3055;DHT22;1537;52.018;8.542;2023-08-21T19:04:08;24.30;95.40
3055;DHT22;1537;52.018;8.542;2023-08-21T19:07:32;24.20;95.80
3055;DHT22;1537;52.018;8.542;2023-08-21T19:10:58;24.10;95.80
3055;DHT22;1537;52.018;8.542;2023-08-21T19:14:22;24.00;96.30
3055;DHT22;1537;52.018;8.542;2023-08-21T19:17:45;24.00;96.40
3055;DHT22;1537;52.018;8.542;2023-08-21T19:21:09;23.90;96.80
3055;DHT22;1537;52.018;8.542;2023-08-21T19:24:32;23.80;96.50
3055;DHT22;1537;52.018;8.542;2023-08-21T19:27:57;23.80;96.30
3055;DHT22;1537;52.018;8.542;2023-08-21T19:31:21;23.70;96.00
3055;DHT22;1537;52.018;8.542;2023-08-21T19:34:45;23.60;96.50
3055;DHT22;1537;52.018;8.542;2023-08-21T19:38:10;23.60;97.50
3055;DHT22;1537;52.018;8.542;2023-08-21T19:41:35;23.60;97.30
3055;DHT22;1537;52.018;8.542;2023-08-21T19:45:00;23.60;97.20
3055;DHT22;1537;52.018;8.542;2023-08-21T19:48:24;23.70;97.60
3055;DHT22;1537;52.018;8.542;2023-08-21T19:51:48;23.70;97.60
3055;DHT22;1537;52.018;8.542;2023-08-21T19:55:12;23.60;97.50
3055;DHT22;1537;52.018;8.542;2023-08-21T19:58:36;23.50;97.40
3055;DHT22;1537;52.018;8.542;2023-08-21T20:02:04;23.50;98.00
3055;DHT22;1537;52.018;8.542;2023-08-21T20:05:28;23.50;97.90
3055;DHT22;1537;52.018;8.542;2023-08-21T20:08:52;23.40;97.90
3055;DHT22;1537;52.018;8.542;2023-08-21T20:12:16;23.40;98.00
3055;DHT22;1537;52.018;8.542;2023-08-21T20:15:42;23.40;98.10
3055;DHT22;1537;52.018;8.542;2023-08-21T20:19:10;23.30;98.00
3055;DHT22;1537;52.018;8.542;2023-08-21T20:22:35;23.30;97.90
3055;DHT22;1537;52.018;8.542;2023-08-21T20:26:02;23.20;97.80
3055;DHT22;1537;52.018;8.542;2023-08-21T20:29:28;23.20;98.00
3055;DHT22;1537;52.018;8.542;2023-08-21T20:32:52;23.20;98.20
3055;DHT22;1537;52.018;8.542;2023-08-21T20:36:17;23.20;98.30
3055;DHT22;1537;52.018;8.542;2023-08-21T20:39:40;23.20;98.70
3055;DHT22;1537;52.018;8.542;2023-08-21T20:43:04;23.10;98.90
3055;DHT22;1537;52.018;8.542;2023-08-21T20:46:29;23.10;99.00
3055;DHT22;1537;52.018;8.542;2023-08-21T20:49:53;23.10;98.90
3055;DHT22;1537;52.018;8.542;2023-08-21T20:53:18;23.00;98.90
3055;DHT22;1537;52.018;8.542;2023-08-21T20:56:42;22.90;99.30
3055;DHT22;1537;52.018;8.542;2023-08-21T21:00:07;22.90;99.40
3055;DHT22;1537;52.018;8.542;2023-08-21T21:03:31;22.90;99.80
3055;DHT22;1537;52.018;8.542;2023-08-21T21:06:55;22.80;99.90
3055;DHT22;1537;52.018;8.542;2023-08-21T21:10:20;22.80;99.90
3055;DHT22;1537;52.018;8.542;2023-08-21T21:13:45;22.70;99.90
3055;DHT22;1537;52.018;8.542;2023-08-21T21:17:09;22.60;99.90
3055;DHT22;1537;52.018;8.542;2023-08-21T21:20:35;22.60;99.90
3055;DHT22;1537;52.018;8.542;2023-08-21T21:23:59;22.50;99.90
3055;DHT22;1537;52.018;8.542;2023-08-21T21:27:24;22.40;99.90
3055;DHT22;1537;52.018;8.542;2023-08-21T21:30:55;22.30;99.90
3055;DHT22;1537;52.018;8.542;2023-08-21T21:34:19;22.20;99.90
3055;DHT22;1537;52.018;8.542;2023-08-21T21:37:43;22.20;99.90
3055;DHT22;1537;52.018;8.542;2023-08-21T21:41:07;22.20;99.90
3055;DHT22;1537;52.018;8.542;2023-08-21T21:44:33;22.10;99.90
3055;DHT22;1537;52.018;8.542;2023-08-21T21:47:59;22.00;99.90
3055;DHT22;1537;52.018;8.542;2023-08-21T21:51:23;21.90;99.90
3055;DHT22;1537;52.018;8.542;2023-08-21T21:54:47;21.90;99.90
3055;DHT22;1537;52.018;8.542;2023-08-21T21:58:13;21.80;99.90
3055;DHT22;1537;52.018;8.542;2023-08-21T22:01:38;21.70;99.90
3055;DHT22;1537;52.018;8.542;2023-08-21T22:05:07;21.70;99.90
3055;DHT22;1537;52.018;8.542;2023-08-21T22:08:32;21.70;99.90
3055;DHT22;1537;52.018;8.542;2023-08-21T22:11:57;21.60;99.90
3055;DHT22;1537;52.018;8.542;2023-08-21T22:15:24;21.60;99.90
3055;DHT22;1537;52.018;8.542;2023-08-21T22:18:49;21.60;99.90
3055;DHT22;1537;52.018;8.542;2023-08-21T22:22:13;21.50;99.90
3055;DHT22;1537;52.018;8.542;2023-08-21T22:25:37;21.40;99.90